Time;durP1;ratioP1;P1;durP2;ratioP2;P2;SDS_P1;SDS_P2;PMS_P1;PMS_P2;Temp;Humidity;BMP_temperature;BMP_pressure;BME280_temperature;BME280_humidity;BME280_pressure;Samples;Min_cycle;Max_cycle;Signal;HPM_P1;HPM_P2
2021/12/19 00:00:45;;;;;;;21.50;8.52;;;;;;;2.23;97.09;99481.25;4483791;31;20166;-72
2021/12/19 00:11:13;;;;;;;16.83;7.95;;;;;;;2.18;97.72;99473.72;4483754;31;20084;-72
2021/12/19 00:13:41;;;;;;;18.02;9.00;;;;;;;2.25;97.50;99472.53;4485735;31;20096;-72
2021/12/19 00:16:09;;;;;;;18.48;8.77;;;;;;;2.18;97.75;99472.84;4486181;31;20191;-72
2021/12/19 00:18:36;;;;;;;16.73;8.50;;;;;;;2.18;97.90;99460.78;4486034;31;20121;-72
2021/12/19 00:21:04;;;;;;;27.52;10.30;;;;;;;2.19;97.73;99462.44;4486032;31;20513;-72
2021/12/19 00:23:39;;;;;;;24.33;8.27;;;;;;;2.19;97.92;99451.28;4499931;31;20108;-72
2021/12/19 00:26:07;;;;;;;22.45;8.60;;;;;;;2.25;97.95;99449.25;4501822;31;20076;-72
2021/12/19 00:28:38;;;;;;;22.20;8.75;;;;;;;2.23;98.10;99458.84;4496918;31;20179;-72
2021/12/19 00:31:06;;;;;;;24.17;9.90;;;;;;;2.22;98.14;99443.38;4485735;31;20119;-72
2021/12/19 00:33:33;;;;;;;26.80;9.95;;;;;;;2.13;98.80;99458.41;4486184;31;20271;-72
2021/12/19 00:36:01;;;;;;;18.12;8.93;;;;;;;2.23;98.69;99450.25;4485851;31;20084;-72
2021/12/19 00:38:28;;;;;;;22.15;9.23;;;;;;;2.14;98.92;99441.16;4485943;32;20449;-72
2021/12/19 00:40:56;;;;;;;24.00;8.80;;;;;;;2.17;98.87;99437.59;4485937;31;20370;-72
2021/12/19 00:43:52;;;;;;;20.95;9.75;;;;;;;2.18;98.89;99436.66;4485946;31;20097;-72
2021/12/19 00:46:15;;;;;;;23.60;9.57;;;;;;;2.15;99.04;99434.22;4485862;31;20530;-72
2021/12/19 00:49:00;;;;;;;23.95;10.32;;;;;;;2.17;99.29;99424.66;4485998;32;20494;-72
2021/12/19 00:51:27;;;;;;;20.05;9.13;;;;;;;2.09;99.83;99417.22;4485805;31;20132;-71
2021/12/19 00:53:55;;;;;;;13.62;7.03;;;;;;;2.06;100.00;99430.28;4485474;31;20143;-72
2021/12/19 00:56:22;;;;;;;21.35;8.43;;;;;;;2.13;100.00;99421.37;4485686;31;20096;-71
2021/12/19 00:58:50;;;;;;;19.62;8.20;;;;;;;2.14;100.00;99425.62;4485436;32;20112;-71
2021/12/19 01:01:19;;;;;;;23.30;10.00;;;;;;;2.07;100.00;99434.56;4485864;31;20097;-71
2021/12/19 01:03:47;;;;;;;20.70;9.32;;;;;;;2.05;100.00;99429.44;4485856;31;20148;-72
2021/12/19 01:06:17;;;;;;;20.65;9.18;;;;;;;2.05;100.00;99426.88;4485926;32;20159;-72
2021/12/19 01:08:46;;;;;;;19.12;7.82;;;;;;;2.05;100.00;99420.88;4485365;32;20136;-72
2021/12/19 01:11:14;;;;;;;20.33;9.50;;;;;;;2.02;100.00;99410.66;4485664;31;20119;-72
2021/12/19 01:13:42;;;;;;;25.95;9.32;;;;;;;2.05;100.00;99413.94;4485625;31;20131;-71
2021/12/19 01:16:09;;;;;;;19.67;9.07;;;;;;;2.00;100.00;99402.12;4485654;32;20107;-72
2021/12/19 01:18:36;;;;;;;18.45;9.02;;;;;;;1.98;100.00;99399.59;4485530;32;20548;-72
2021/12/19 01:21:05;;;;;;;19.23;9.70;;;;;;;1.90;100.00;99394.78;4485354;31;20099;-72
2021/12/19 01:23:32;;;;;;;20.48;9.25;;;;;;;1.88;100.00;99375.09;4498113;31;20118;-72
2021/12/19 01:25:59;;;;;;;22.42;10.05;;;;;;;1.89;100.00;99379.34;4501108;31;20453;-71
2021/12/19 01:28:27;;;;;;;20.73;8.32;;;;;;;1.95;100.00;99379.06;4497527;31;20112;-71
2021/12/19 01:30:54;;;;;;;21.35;9.27;;;;;;;1.94;100.00;99373.06;4485368;31;20115;-72
2021/12/19 01:33:21;;;;;;;20.80;9.05;;;;;;;1.98;100.00;99354.84;4485389;31;20105;-71
2021/12/19 01:35:49;;;;;;;20.30;9.57;;;;;;;2.05;100.00;99351.09;4485364;31;20367;-72
2021/12/19 01:38:16;;;;;;;21.12;9.10;;;;;;;2.09;100.00;99344.84;4485737;31;20103;-72
2021/12/19 01:40:43;;;;;;;19.05;8.07;;;;;;;2.14;100.00;99332.59;4484374;32;20489;-72
2021/12/19 01:43:10;;;;;;;21.85;8.32;;;;;;;2.24;100.00;99320.91;4485349;31;20503;-71
2021/12/19 01:45:40;;;;;;;15.45;8.07;;;;;;;2.24;100.00;99318.34;4485369;32;20085;-71
2021/12/19 01:48:10;;;;;;;13.70;6.80;;;;;;;2.29;100.00;99311.19;4485671;31;20088;-71
2021/12/19 01:50:40;;;;;;;16.52;9.27;;;;;;;2.37;100.00;99322.94;4485409;32;20543;-71
2021/12/19 01:53:11;;;;;;;24.60;9.60;;;;;;;2.39;100.00;99308.19;4485717;31;20119;-71
2021/12/19 01:55:40;;;;;;;17.27;8.00;;;;;;;2.47;100.00;99308.66;4485265;31;20115;-71
2021/12/19 01:58:08;;;;;;;22.10;9.13;;;;;;;2.50;100.00;99308.53;4485430;32;20096;-71
2021/12/19 02:00:41;;;;;;;14.63;6.65;;;;;;;2.57;100.00;99304.72;4484988;31;20100;-71
2021/12/19 02:03:09;;;;;;;16.75;7.35;;;;;;;2.66;100.00;99293.94;4485339;32;20092;-72
2021/12/19 02:05:37;;;;;;;19.10;9.43;;;;;;;2.66;100.00;99282.75;4485781;31;20124;-71
2021/12/19 02:08:05;;;;;;;14.40;7.12;;;;;;;2.70;100.00;99297.22;4485252;31;20104;-72
2021/12/19 02:10:33;;;;;;;15.60;7.22;;;;;;;2.73;100.00;99284.13;4485371;31;20096;-71
2021/12/19 02:13:02;;;;;;;13.98;7.55;;;;;;;2.76;100.00;99277.97;4485311;31;20097;-71
2021/12/19 02:15:31;;;;;;;13.00;6.72;;;;;;;2.85;100.00;99256.81;4485524;31;20119;-72
2021/12/19 02:18:03;;;;;;;12.75;8.07;;;;;;;2.90;100.00;99243.66;4485070;31;20115;-72
2021/12/19 02:20:32;;;;;;;17.25;8.10;;;;;;;2.92;100.00;99239.22;4485128;31;20100;-71
2021/12/19 02:23:00;;;;;;;13.40;7.40;;;;;;;2.88;100.00;99251.50;4494499;31;20116;-71
2021/12/19 02:25:27;;;;;;;19.62;7.45;;;;;;;2.97;100.00;99240.69;4501017;31;20125;-73
2021/12/19 02:27:54;;;;;;;11.93;7.30;;;;;;;3.01;100.00;99236.16;4500870;31;20083;-71
2021/12/19 02:30:22;;;;;;;14.15;6.97;;;;;;;3.11;100.00;99247.75;4484843;31;20442;-72
2021/12/19 02:32:49;;;;;;;15.70;9.52;;;;;;;3.17;99.88;99221.53;4485213;31;20149;-72
2021/12/19 02:35:22;;;;;;;17.50;7.72;;;;;;;3.17;99.79;99223.28;4485063;31;20096;-72
2021/12/19 02:48:53;;;;;;;12.90;6.78;;;;;;;3.28;98.87;99200.25;4485206;31;20108;-71
2021/12/19 02:51:20;;;;;;;14.63;7.30;;;;;;;3.28;98.66;99217.56;4484910;31;20127;-71
2021/12/19 02:53:47;;;;;;;10.65;5.55;;;;;;;3.25;98.58;99197.84;4484670;31;20100;-72
2021/12/19 02:56:14;;;;;;;14.93;7.00;;;;;;;3.25;98.66;99184.87;4484857;32;20122;-72
2021/12/19 02:58:43;;;;;;;12.52;7.03;;;;;;;3.23;98.63;99185.91;4484590;31;20084;-72
2021/12/19 03:01:14;;;;;;;14.55;6.10;;;;;;;3.15;99.00;99173.34;4484693;31;20478;-72
2021/12/19 03:03:41;;;;;;;14.68;6.65;;;;;;;3.12;99.35;99168.31;4484638;31;20851;-72
2021/12/19 03:06:09;;;;;;;15.95;7.95;;;;;;;3.05;99.84;99169.56;4484744;31;20103;-72
2021/12/19 03:08:42;;;;;;;15.57;6.87;;;;;;;2.92;100.00;99172.81;4484831;31;20122;-72
2021/12/19 03:19:01;;;;;;;14.70;7.00;;;;;;;2.88;100.00;99142.81;4484528;31;20064;-72
2021/12/19 03:21:28;;;;;;;12.82;6.30;;;;;;;2.89;100.00;99154.81;4484436;31;20108;-72
2021/12/19 03:23:55;;;;;;;11.90;6.12;;;;;;;2.87;100.00;99140.31;4499972;31;20095;-72
2021/12/19 03:26:23;;;;;;;12.32;6.78;;;;;;;2.88;100.00;99134.19;4500153;31;20111;-72
2021/12/19 03:28:50;;;;;;;16.42;7.72;;;;;;;2.92;100.00;99139.16;4494161;31;20165;-72
2021/12/19 03:31:17;;;;;;;14.50;7.60;;;;;;;2.96;99.99;99119.13;4484327;31;20096;-72
2021/12/19 03:33:44;;;;;;;12.88;6.85;;;;;;;2.88;100.00;99122.13;4484241;31;20091;-72
2021/12/19 03:36:12;;;;;;;13.73;6.75;;;;;;;2.87;100.00;99127.38;4484324;32;20092;-72
2021/12/19 03:38:43;;;;;;;13.85;6.32;;;;;;;2.84;100.00;99118.00;4484198;32;20119;-72
2021/12/19 03:41:21;;;;;;;14.48;6.18;;;;;;;2.89;99.82;99120.34;4484433;31;20111;-72
2021/12/19 03:43:49;;;;;;;14.55;7.47;;;;;;;2.88;99.82;99092.78;4484231;31;20097;-72
2021/12/19 03:46:17;;;;;;;17.83;8.65;;;;;;;2.83;99.85;99105.97;4484308;31;20394;-72
2021/12/19 03:48:44;;;;;;;12.90;6.55;;;;;;;2.86;99.35;99071.34;4485803;31;20101;-72
2021/12/19 03:51:12;;;;;;;14.68;7.47;;;;;;;2.89;99.08;99064.25;4486213;31;20127;-72
2021/12/19 03:53:39;;;;;;;16.77;7.12;;;;;;;2.89;99.05;99082.38;4486129;31;20092;-72
2021/12/19 03:56:06;;;;;;;13.57;6.72;;;;;;;2.84;99.32;99084.38;4486284;31;20122;-72
2021/12/19 03:58:33;;;;;;;13.48;7.53;;;;;;;2.77;99.69;99060.59;4486151;31;20109;-72
2021/12/19 04:01:04;;;;;;;13.40;6.05;;;;;;;2.81;99.20;99080.19;4486048;31;20119;-72
2021/12/19 04:03:32;;;;;;;15.93;6.10;;;;;;;2.84;98.96;99089.53;4486133;31;20121;-73
2021/12/19 04:05:59;;;;;;;14.90;7.90;;;;;;;2.74;99.41;99090.94;4485121;32;20101;-72
2021/12/19 04:08:27;;;;;;;13.88;7.10;;;;;;;2.74;99.16;99103.88;4485940;31;20420;-72
2021/12/19 04:10:54;;;;;;;13.85;6.18;;;;;;;2.79;98.89;99076.03;4486144;31;20123;-72
2021/12/19 04:13:23;;;;;;;15.32;8.95;;;;;;;2.81;98.53;99067.25;4486130;31;20088;-72
2021/12/19 04:15:50;;;;;;;19.95;8.23;;;;;;;2.82;98.30;99079.28;4486039;31;20123;-72
2021/12/19 04:18:18;;;;;;;13.75;6.97;;;;;;;2.83;98.36;99087.88;4485991;31;20451;-72
2021/12/19 04:20:45;;;;;;;17.23;7.37;;;;;;;2.79;98.22;99091.53;4485995;31;20587;-72
2021/12/19 04:23:12;;;;;;;12.77;7.37;;;;;;;2.74;98.30;99091.78;4496658;31;20118;-72
2021/12/19 04:25:39;;;;;;;18.52;9.07;;;;;;;2.64;98.78;99085.41;4501832;31;20504;-72
2021/12/19 04:28:07;;;;;;;14.63;7.12;;;;;;;2.73;98.09;99063.41;4500491;31;20088;-72
2021/12/19 04:30:34;;;;;;;18.50;8.18;;;;;;;2.85;97.29;99083.47;4485950;31;20135;-72
2021/12/19 04:33:05;;;;;;;15.43;8.93;;;;;;;2.83;97.35;99082.69;4485941;31;20115;-72
2021/12/19 04:35:35;;;;;;;17.30;8.10;;;;;;;2.84;96.65;99084.38;4485837;32;20462;-72
2021/12/19 04:41:10;;;;;;;14.07;7.10;;;;;;;2.94;95.68;99095.09;4485636;31;20096;-73
2021/12/19 05:03:15;;;;;;;12.48;6.47;;;;;;;3.08;93.04;99074.47;4451825;32;20133;-72
2021/12/19 05:16:04;;;;;;;9.18;4.93;;;;;;;3.17;92.40;99067.97;4451988;32;20223;-72
2021/12/19 05:18:35;;;;;;;11.77;5.55;;;;;;;3.24;92.05;99052.91;4452271;32;20085;-72
2021/12/19 05:21:11;;;;;;;12.98;5.72;;;;;;;3.21;92.67;99077.25;4451920;32;20542;-72
2021/12/19 05:26:12;;;;;;;12.63;5.95;;;;;;;3.27;92.86;99089.00;4485584;31;20438;-72
2021/12/19 05:28:40;;;;;;;10.90;6.82;;;;;;;3.27;92.98;99086.41;4490142;31;20096;-72
2021/12/19 05:31:07;;;;;;;10.13;5.22;;;;;;;3.28;93.06;99077.75;4501474;31;20434;-72
2021/12/19 05:33:34;;;;;;;9.27;5.45;;;;;;;3.27;93.05;99076.91;4501114;31;20080;-72
2021/12/19 05:46:57;;;;;;;14.68;6.43;;;;;;;2.95;95.73;99035.50;4467676;32;20127;-72
2021/12/19 05:49:24;;;;;;;14.57;7.32;;;;;;;2.94;96.19;99031.22;4467225;32;20111;-72
2021/12/19 05:51:51;;;;;;;13.35;6.75;;;;;;;2.90;96.88;99032.28;4467320;32;20155;-72
2021/12/19 05:54:19;;;;;;;12.70;6.35;;;;;;;2.83;97.38;99036.97;4467232;32;20135;-72
2021/12/19 05:56:46;;;;;;;16.67;8.02;;;;;;;2.83;97.51;99026.63;4467050;32;20466;-72
2021/12/19 05:59:13;;;;;;;11.43;6.70;;;;;;;2.81;97.79;99043.13;4467037;32;20089;-72
2021/12/19 06:01:42;;;;;;;16.70;7.18;;;;;;;2.71;98.26;99039.34;4466992;32;20115;-72
2021/12/19 06:04:10;;;;;;;15.13;7.03;;;;;;;2.71;98.49;99039.34;4467206;32;20162;-72
2021/12/19 06:06:37;;;;;;;13.00;6.82;;;;;;;2.70;98.79;99027.34;4467159;32;20096;-72
2021/12/19 06:09:05;;;;;;;14.10;7.10;;;;;;;2.62;99.48;99027.72;4467146;32;20128;-72
2021/12/19 06:11:33;;;;;;;14.52;7.82;;;;;;;2.64;99.31;99016.41;4466996;32;20144;-72
2021/12/19 06:14:01;;;;;;;10.30;5.80;;;;;;;2.60;99.62;99032.16;4467069;32;20622;-71
2021/12/19 06:16:29;;;;;;;15.15;7.57;;;;;;;2.54;99.83;99007.44;4490122;31;20092;-72
2021/12/19 06:18:57;;;;;;;14.57;6.85;;;;;;;2.52;100.00;99022.22;4501295;31;20628;-72
2021/12/19 06:21:24;;;;;;;14.68;7.28;;;;;;;2.51;100.00;99010.19;4500858;31;20088;-72
2021/12/19 06:23:51;;;;;;;15.30;6.62;;;;;;;2.46;100.00;99000.09;4485899;31;20097;-72
2021/12/19 06:26:18;;;;;;;17.50;7.22;;;;;;;2.42;100.00;99015.84;4485168;31;20096;-72
2021/12/19 06:28:46;;;;;;;16.15;8.13;;;;;;;2.41;100.00;99006.44;4490199;31;20126;-72
2021/12/19 06:31:13;;;;;;;14.65;7.57;;;;;;;2.40;100.00;99012.53;4500907;31;20104;-72
2021/12/19 06:33:41;;;;;;;15.20;7.40;;;;;;;2.38;100.00;99009.19;4499829;31;20100;-72
2021/12/19 06:36:09;;;;;;;16.77;7.40;;;;;;;2.39;100.00;99016.00;4500892;31;20092;-72
2021/12/19 06:38:36;;;;;;;9.93;6.28;;;;;;;2.40;100.00;99015.09;4500691;31;20100;-72
2021/12/19 06:41:04;;;;;;;15.18;6.72;;;;;;;2.46;100.00;99005.25;4500659;31;20118;-72
2021/12/19 06:43:33;;;;;;;9.52;5.85;;;;;;;2.44;100.00;98999.34;4500822;31;20603;-72
2021/12/19 06:46:00;;;;;;;13.38;7.50;;;;;;;2.48;100.00;99006.03;4500923;31;20110;-72
2021/12/19 06:48:28;;;;;;;12.82;6.65;;;;;;;2.46;100.00;98994.09;4500681;31;20084;-72
2021/12/19 06:50:56;;;;;;;12.43;6.65;;;;;;;2.51;100.00;98999.03;4500738;31;20084;-72
2021/12/19 06:53:23;;;;;;;12.70;5.87;;;;;;;2.48;100.00;99000.88;4500699;31;20096;-72
2021/12/19 06:55:50;;;;;;;14.82;7.35;;;;;;;2.55;100.00;99006.53;4500428;31;20487;-72
2021/12/19 06:58:17;;;;;;;9.98;5.85;;;;;;;2.60;100.00;99007.12;4500716;31;20092;-72
2021/12/19 07:00:45;;;;;;;13.18;7.20;;;;;;;2.52;100.00;99013.62;4500288;31;20468;-72
2021/12/19 07:03:14;;;;;;;10.45;6.03;;;;;;;2.52;100.00;99011.88;4500572;31;20111;-72
2021/12/19 07:05:42;;;;;;;13.48;6.32;;;;;;;2.55;100.00;99009.13;4500586;31;20114;-72
2021/12/19 07:08:09;;;;;;;14.95;7.43;;;;;;;2.56;100.00;98987.53;4500552;31;20091;-72
2021/12/19 07:10:37;;;;;;;13.05;6.32;;;;;;;2.58;100.00;99001.22;4500848;31;20159;-72
2021/12/19 07:13:04;;;;;;;10.02;4.95;;;;;;;2.54;100.00;98984.16;4500237;31;20130;-72
2021/12/19 07:15:31;;;;;;;11.77;5.85;;;;;;;2.57;100.00;98973.66;4500567;31;20563;-72
2021/12/19 07:18:04;;;;;;;12.65;5.53;;;;;;;2.59;100.00;98971.00;4500539;31;20115;-72
2021/12/19 07:20:31;;;;;;;9.57;4.80;;;;;;;2.64;100.00;98959.50;4500529;31;20117;-72
2021/12/19 07:22:58;;;;;;;12.95;6.75;;;;;;;2.60;100.00;98967.50;4488873;31;20146;-72
2021/12/19 07:25:26;;;;;;;11.45;6.12;;;;;;;2.64;100.00;98959.50;4484405;31;20453;-72
2021/12/19 07:27:53;;;;;;;12.55;5.68;;;;;;;2.65;100.00;98958.59;4484500;31;20160;-72
2021/12/19 07:30:24;;;;;;;15.77;7.12;;;;;;;2.72;100.00;98963.44;4499948;31;20123;-72
2021/12/19 07:32:53;;;;;;;11.27;5.80;;;;;;;2.71;100.00;98974.69;4500089;31;20088;-72
2021/12/19 07:35:22;;;;;;;10.38;5.78;;;;;;;2.76;100.00;98959.78;4498940;31;20537;-72
2021/12/19 07:37:51;;;;;;;11.73;6.05;;;;;;;2.82;100.00;98974.97;4500042;31;20149;-72
2021/12/19 07:40:20;;;;;;;11.15;5.78;;;;;;;2.80;99.99;98975.03;4500224;31;20614;-72
2021/12/19 07:42:47;;;;;;;12.93;6.37;;;;;;;2.79;100.00;98965.59;4500045;31;20111;-72
2021/12/19 07:45:15;;;;;;;14.98;7.05;;;;;;;2.79;99.92;98972.53;4500074;31;20106;-72
2021/12/19 07:47:44;;;;;;;16.50;7.53;;;;;;;2.84;99.96;98978.28;4500422;31;20111;-72
2021/12/19 07:50:12;;;;;;;9.77;5.57;;;;;;;2.82;100.00;98977.53;4499967;31;20137;-72
2021/12/19 07:52:40;;;;;;;13.57;6.82;;;;;;;2.92;99.39;98981.31;4500375;31;20476;-72
2021/12/19 07:55:08;;;;;;;13.80;6.12;;;;;;;2.98;99.16;98972.34;4499705;31;20471;-72
2021/12/19 07:57:35;;;;;;;12.55;5.82;;;;;;;3.05;98.92;98978.03;4499985;31;20153;-72
2021/12/19 08:00:08;;;;;;;10.90;5.78;;;;;;;3.09;98.47;98972.63;4499608;31;20122;-72
2021/12/19 08:02:39;;;;;;;10.05;5.47;;;;;;;3.15;98.39;98981.78;4499521;31;20582;-72
2021/12/19 08:05:07;;;;;;;8.20;4.60;;;;;;;3.13;98.12;98988.78;4499700;31;20155;-72
2021/12/19 08:07:34;;;;;;;11.45;5.80;;;;;;;3.09;98.37;99002.81;4499723;31;20520;-72
2021/12/19 08:12:35;;;;;;;11.38;5.95;;;;;;;3.16;98.15;98968.78;4499732;31;20108;-72
2021/12/19 08:15:06;;;;;;;12.00;5.32;;;;;;;3.19;97.87;98959.97;4499551;31;20092;-72
2021/12/19 08:17:33;;;;;;;10.70;5.12;;;;;;;3.26;97.77;98963.91;4499686;31;20136;-72
2021/12/19 08:20:04;;;;;;;12.02;5.78;;;;;;;3.27;97.37;98957.81;4499514;31;20099;-72
2021/12/19 08:22:32;;;;;;;10.32;5.25;;;;;;;3.32;97.27;98953.19;4493092;31;20122;-72
2021/12/19 08:24:59;;;;;;;10.00;5.57;;;;;;;3.34;97.13;98942.75;4483652;32;20118;-72
2021/12/19 08:27:27;;;;;;;12.82;6.18;;;;;;;3.30;97.68;98925.72;4483509;31;20156;-72
2021/12/19 08:29:55;;;;;;;9.90;5.62;;;;;;;3.32;97.59;98926.47;4496071;31;20129;-72
2021/12/19 08:32:23;;;;;;;10.80;5.68;;;;;;;3.37;97.29;98912.31;4499251;31;20096;-72
2021/12/19 08:34:50;;;;;;;11.52;4.95;;;;;;;3.42;97.06;98916.41;4501390;31;20096;-72
2021/12/19 08:37:18;;;;;;;10.55;5.20;;;;;;;3.49;96.99;98915.16;4501700;31;20092;-72
2021/12/19 08:39:46;;;;;;;10.82;5.62;;;;;;;3.49;96.48;98902.19;4501702;31;20114;-72
2021/12/19 08:42:14;;;;;;;10.05;5.07;;;;;;;3.55;96.55;98909.59;4500368;31;20096;-72
2021/12/19 08:44:41;;;;;;;11.05;5.40;;;;;;;3.64;96.31;98905.66;4501787;31;20560;-72
2021/12/19 08:47:09;;;;;;;9.30;5.05;;;;;;;3.78;95.39;98886.69;4501521;31;20761;-72
2021/12/19 08:49:37;;;;;;;10.77;5.68;;;;;;;3.79;95.25;98889.19;4501698;31;20100;-72
2021/12/19 08:52:04;;;;;;;12.00;5.80;;;;;;;3.78;95.10;98886.69;4501626;31;20108;-72
2021/12/19 08:54:31;;;;;;;10.18;5.07;;;;;;;3.77;95.17;98878.09;4501592;31;20137;-72
2021/12/19 08:56:58;;;;;;;9.88;5.22;;;;;;;3.70;95.38;98862.06;4501987;31;20409;-72
2021/12/19 08:59:26;;;;;;;8.85;4.60;;;;;;;3.65;95.49;98864.13;4501348;31;20080;-72
2021/12/19 09:01:54;;;;;;;8.02;4.70;;;;;;;3.58;95.92;98878.34;4501342;31;20477;-72
2021/12/19 09:04:21;;;;;;;8.27;4.40;;;;;;;3.59;96.10;98859.31;4501441;31;20096;-72
2021/12/19 09:06:49;;;;;;;8.52;4.55;;;;;;;3.54;96.32;98863.91;4501476;31;20160;-72
2021/12/19 09:09:16;;;;;;;9.20;5.00;;;;;;;3.58;95.86;98836.91;4501427;31;20091;-72
2021/12/19 09:11:43;;;;;;;10.10;4.10;;;;;;;3.59;96.01;98830.81;4501493;31;20100;-72
2021/12/19 09:14:10;;;;;;;11.20;4.40;;;;;;;3.63;95.74;98834.84;4501797;31;20115;-72
2021/12/19 09:16:37;;;;;;;9.45;4.50;;;;;;;3.66;95.52;98829.50;4501329;31;20151;-72
2021/12/19 09:19:13;;;;;;;10.00;4.37;;;;;;;3.66;95.68;98823.50;4501491;31;20138;-72
2021/12/19 09:21:41;;;;;;;8.73;4.97;;;;;;;3.70;95.46;98820.63;4500728;31;20085;-72
2021/12/19 09:24:08;;;;;;;10.13;4.80;;;;;;;3.85;95.48;98841.38;4485778;31;20101;-72
2021/12/19 09:26:37;;;;;;;8.70;4.82;;;;;;;3.89;94.49;98798.75;4485668;31;20123;-72
2021/12/19 09:29:04;;;;;;;10.77;5.07;;;;;;;3.99;94.17;98810.25;4492555;31;20096;-72
2021/12/19 09:31:32;;;;;;;11.70;5.15;;;;;;;4.15;93.62;98796.31;4501332;31;20101;-72
2021/12/19 09:34:00;;;;;;;7.72;3.47;;;;;;;4.31;92.20;98789.25;4501243;31;20167;-72
2021/12/19 09:36:28;;;;;;;8.85;4.37;;;;;;;4.47;91.63;98806.44;4501222;31;20461;-72
2021/12/19 09:38:55;;;;;;;6.80;4.18;;;;;;;4.58;90.62;98786.66;4501196;31;20099;-72
2021/12/19 09:41:29;;;;;;;9.00;4.60;;;;;;;4.69;90.28;98792.91;4501212;31;20147;-72
2021/12/19 09:43:58;;;;;;;10.35;4.50;;;;;;;4.76;89.53;98779.44;4501184;31;20148;-72
2021/12/19 09:46:29;;;;;;;8.88;4.35;;;;;;;4.93;89.05;98782.69;4501065;31;20483;-72
2021/12/19 09:48:57;;;;;;;10.20;4.90;;;;;;;4.98;88.49;98767.63;4498324;31;83371;-72
2021/12/19 09:51:32;;;;;;;6.60;4.07;;;;;;;5.12;87.46;98788.34;4501360;31;20084;-72
2021/12/19 09:54:00;;;;;;;8.88;4.30;;;;;;;5.19;86.97;98795.72;4501007;31;20123;-72
2021/12/19 09:56:28;;;;;;;8.80;4.40;;;;;;;5.30;85.70;98775.91;4501221;31;20144;-72
2021/12/19 09:58:55;;;;;;;11.73;4.70;;;;;;;5.41;85.68;98750.97;4501115;31;20100;-72
2021/12/19 10:01:22;;;;;;;7.25;3.60;;;;;;;5.65;85.14;98745.84;4501171;31;20167;-72
2021/12/19 10:03:49;;;;;;;7.00;3.72;;;;;;;5.47;83.45;98748.75;4501010;31;20100;-72
2021/12/19 10:06:22;;;;;;;7.75;4.22;;;;;;;5.03;85.95;98729.25;4501011;31;20134;-72
2021/12/19 10:09:15;;;;;;;8.77;4.60;;;;;;;4.88;86.26;98715.53;4500936;31;20099;-72
2021/12/19 10:14:33;;;;;;;9.20;4.75;;;;;;;4.43;88.30;98699.44;4501085;31;20458;-72
2021/12/19 10:17:05;;;;;;;6.60;4.20;;;;;;;4.44;88.45;98704.53;4500927;31;20089;-72
2021/12/19 10:20:02;;;;;;;6.05;3.62;;;;;;;4.42;88.75;98721.13;4501155;31;20104;-72
2021/12/19 10:22:44;;;;;;;8.30;4.05;;;;;;;4.63;88.17;98690.34;4493671;31;20171;-72
2021/12/19 10:25:24;;;;;;;8.63;4.35;;;;;;;4.70;88.34;98690.78;4485131;31;20100;-72
2021/12/19 10:27:57;;;;;;;6.60;3.75;;;;;;;4.75;87.40;98720.72;4485285;31;20100;-72
2021/12/19 10:30:33;;;;;;;9.07;3.55;;;;;;;4.66;87.60;98684.13;4484829;31;20465;-72
2021/12/19 10:33:10;;;;;;;8.70;3.87;;;;;;;4.78;87.22;98683.31;4484990;31;20506;-72
2021/12/19 10:35:39;;;;;;;8.60;3.42;;;;;;;4.59;87.24;98691.50;4485192;32;20138;-72
2021/12/19 10:38:16;;;;;;;10.35;5.00;;;;;;;4.54;87.97;98683.19;4485148;31;20128;-72
2021/12/19 10:40:48;;;;;;;11.55;3.97;;;;;;;4.68;87.98;98685.72;4484979;31;20104;-72
2021/12/19 10:43:17;;;;;;;9.52;4.50;;;;;;;4.72;87.43;98661.19;4485155;31;20081;-72
2021/12/19 10:45:47;;;;;;;7.78;4.60;;;;;;;4.84;86.96;98716.66;4485233;32;20139;-72
2021/12/19 10:48:27;;;;;;;9.38;5.35;;;;;;;4.73;86.51;98638.69;4485025;31;20096;-72
2021/12/19 10:50:59;;;;;;;5.75;3.67;;;;;;;4.59;86.41;98673.34;4483629;32;20092;-72
2021/12/19 10:53:30;;;;;;;11.18;4.15;;;;;;;4.61;87.24;98672.28;4485131;31;20111;-72
2021/12/19 10:55:59;;;;;;;5.82;3.47;;;;;;;4.61;86.36;98656.72;4484570;31;20126;-72
2021/12/19 10:58:30;;;;;;;7.03;3.92;;;;;;;4.67;86.33;98691.81;4482598;32;20366;-72
2021/12/19 11:01:09;;;;;;;7.12;4.35;;;;;;;4.71;85.94;98708.84;4484956;31;20390;-72
2021/12/19 11:03:39;;;;;;;7.15;4.15;;;;;;;4.78;86.30;98684.16;4484933;31;20606;-72
2021/12/19 11:06:26;;;;;;;6.90;3.70;;;;;;;4.78;85.58;98683.31;4484675;31;20171;-72
2021/12/19 11:08:54;;;;;;;5.78;3.55;;;;;;;4.83;85.20;98693.38;4484956;31;20072;-72
2021/12/19 11:11:46;;;;;;;7.12;4.22;;;;;;;4.85;85.27;98679.38;4483562;32;20377;-72
2021/12/19 11:14:16;;;;;;;7.00;3.97;;;;;;;4.90;85.67;98658.31;4483728;32;20100;-72
2021/12/19 11:16:44;;;;;;;6.55;3.85;;;;;;;4.92;85.30;98664.22;4484752;31;20654;-72
2021/12/19 11:19:12;;;;;;;8.10;3.65;;;;;;;4.95;84.54;98671.78;4483597;32;20137;-72
2021/12/19 11:21:39;;;;;;;6.12;3.95;;;;;;;5.05;84.45;98678.03;4485033;31;20458;-72
2021/12/19 11:24:09;;;;;;;6.30;3.83;;;;;;;4.82;84.56;98700.34;4500451;31;20091;-72
2021/12/19 11:26:39;;;;;;;9.32;4.70;;;;;;;4.72;85.06;98731.25;4500383;31;20088;-72
2021/12/19 11:29:08;;;;;;;6.15;3.83;;;;;;;4.73;85.17;98738.13;4492545;31;20163;-72
2021/12/19 11:31:38;;;;;;;7.55;3.58;;;;;;;4.67;85.20;98743.72;4484390;31;20155;-72
2021/12/19 11:34:20;;;;;;;6.70;3.87;;;;;;;4.44;85.67;98760.78;4484362;31;20503;-72
2021/12/19 11:36:54;;;;;;;8.70;4.37;;;;;;;4.28;86.77;98754.91;4484445;31;20145;-72
2021/12/19 11:39:25;;;;;;;9.35;4.53;;;;;;;4.20;87.23;98739.84;4484229;31;20089;-72
2021/12/19 11:42:04;;;;;;;6.82;3.62;;;;;;;4.08;87.66;98744.84;4482968;32;20533;-72
2021/12/19 11:44:33;;;;;;;5.75;3.78;;;;;;;4.07;87.20;98742.38;4484277;31;20091;-72
2021/12/19 11:47:06;;;;;;;8.80;4.45;;;;;;;4.04;87.97;98742.56;4484308;32;20118;-72
2021/12/19 11:49:34;;;;;;;6.95;3.72;;;;;;;4.02;88.06;98749.59;4484108;32;20095;-72
2021/12/19 11:52:25;;;;;;;6.00;3.67;;;;;;;4.08;87.75;98731.91;4469942;32;20171;-72
2021/12/19 11:55:18;;;;;;;10.10;4.70;;;;;;;4.13;87.04;98746.34;4483929;32;20158;-72
2021/12/19 11:58:08;;;;;;;7.70;3.90;;;;;;;4.21;86.80;98741.47;4484188;31;20096;-72
2021/12/19 12:00:47;;;;;;;8.55;4.65;;;;;;;4.14;86.77;98730.69;4484024;32;20164;-72
2021/12/19 12:03:14;;;;;;;4.95;3.70;;;;;;;4.19;86.89;98725.19;4483955;32;20209;-72
2021/12/19 12:05:41;;;;;;;8.07;4.53;;;;;;;4.19;85.98;98726.03;4484306;32;20115;-72
2021/12/19 12:08:09;;;;;;;6.53;4.12;;;;;;;4.04;86.44;98725.25;4484194;32;20096;-72
2021/12/19 12:13:33;;;;;;;9.73;4.60;;;;;;;4.09;86.36;98728.37;4486086;32;20081;-72
2021/12/19 12:18:42;;;;;;;10.32;4.40;;;;;;;4.16;86.34;98730.59;4486119;31;20084;-71
2021/12/19 12:24:13;;;;;;;10.20;4.70;;;;;;;3.95;86.52;98725.00;4486086;31;20149;-72
2021/12/19 12:26:54;;;;;;;8.65;4.60;;;;;;;3.90;86.90;98730.47;4486062;31;20203;-72
2021/12/19 12:29:22;;;;;;;8.45;3.92;;;;;;;3.92;87.21;98715.63;4495273;31;20156;-72
2021/12/19 12:31:50;;;;;;;10.27;4.05;;;;;;;3.91;87.25;98714.00;4501786;31;20156;-72
2021/12/19 12:34:18;;;;;;;7.40;3.97;;;;;;;3.95;87.56;98706.84;4501718;31;20076;-72
2021/12/19 12:36:45;;;;;;;8.43;3.97;;;;;;;3.95;87.19;98718.06;4501603;31;20424;-72
2021/12/19 12:39:21;;;;;;;12.48;4.32;;;;;;;4.03;87.19;98702.84;4501945;31;20146;-72
2021/12/19 12:41:59;;;;;;;9.65;4.25;;;;;;;3.96;87.21;98726.66;4501522;31;20482;-72
2021/12/19 12:44:27;;;;;;;6.12;3.42;;;;;;;3.81;87.79;98695.59;4501760;31;20099;-72
2021/12/19 12:46:54;;;;;;;6.25;3.10;;;;;;;3.87;87.29;98677.06;4501634;31;20489;-72
2021/12/19 12:49:29;;;;;;;7.15;4.18;;;;;;;3.92;87.42;98689.72;4501717;31;20126;-72
2021/12/19 12:51:57;;;;;;;10.93;3.35;;;;;;;3.90;87.68;98674.28;4491930;31;20089;-72
2021/12/19 12:54:34;;;;;;;8.02;3.20;;;;;;;3.94;87.46;98669.75;4491300;31;20581;-72
2021/12/19 12:57:08;;;;;;;4.25;3.08;;;;;;;3.79;87.92;98673.31;4500295;31;20130;-72
2021/12/19 12:59:39;;;;;;;9.85;3.78;;;;;;;3.87;87.89;98682.25;4500254;31;20457;-71
2021/12/19 13:02:18;;;;;;;6.50;3.28;;;;;;;3.81;88.09;98666.25;4501424;31;20152;-72
2021/12/19 13:04:47;;;;;;;6.85;3.50;;;;;;;3.76;88.02;98674.31;4501575;31;20106;-72
2021/12/19 13:07:20;;;;;;;3.62;2.33;;;;;;;3.72;88.34;98671.09;4501122;31;20092;-72
2021/12/19 13:09:57;;;;;;;6.40;3.22;;;;;;;3.78;88.17;98679.41;4492591;31;20108;-72
2021/12/19 13:12:25;;;;;;;6.12;3.37;;;;;;;3.79;87.91;98678.50;4485575;31;20088;-72